Aviation Digital Data Service (ADDS)

Output produced by METARs form (2347 UTC 23 May 2022)
found at http://www.aviationweather.gov/metar/data/
 
FABL 232300Z AUTO 24003KT 9999 ///////// 05/04 Q1022
TAF FABL 232200Z 2400/2424 VRB03KT CAVOK TX22/2412Z TN05/2404Z
       
FACT 232300Z 34009KT 9999 BKN030 15/13 Q1016 NOSIG
TAF FACT 232200Z 2400/2506 35010KT 9999 BKN025 TX17/2412Z TN13/2406Z 
     PROB30 
     TEMPO 2403/2409 4500 -RA BKN012 
     PROB30 
     TEMPO 2409/2418 3000 RA BKN008
       
FAEL 231800Z 36005KT CAVOK 17/14 Q1016
FAGG 232200Z AUTO 32004KT 9999 // NCD 10/09 Q1013
TAF FAGG 232200Z 2400/2424 VRB03KT CAVOK TX19/2412Z TN09/2406Z 
     PROB30 
     TEMPO 2400/2403 1200 BCFG BKN005 
     FM240400 34005KT CAVOK 
     FM240700 27008KT 9999 BKN035 
     PROB30 
     TEMPO 2412/2420 4000 RA BKN012
       
FAHS 232300Z AUTO 25002KT //// // ////// 16/15 Q1018
FAKM 232300Z AUTO 23001KT //// // ////// 06/04 Q1022
FALW 232300Z AUTO 00000KT //// // ////// 11/10 Q1016
FALA 232300Z AUTO 10004KT //// // ////// 10/07 Q1023
TAF FALA 232200Z 2400/2424 VRB03KT CAVOK TX20/2413Z TN07/2404Z 
     PROB30 
     TEMPO 2403/2406 5000 BR BKN007
       
FAMM 232300Z AUTO 12002KT //// // ////// 09/06 Q1022
TAF FAPM 231800Z 2319/2406 VRB03KT CAVOK TX15/2406Z TN08/2404Z
       
FAPE 232300Z 27003KT CAVOK 11/11 Q1013 NOSIG
TAF FAPE 232200Z 2400/2424 VRB03KT CAVOK TX22/2412Z TN11/2403Z 
     PROB30 
     TEMPO 2400/2406 BKN005 
     BECMG 2416/2418 BKN015
       
FASI 232100Z AUTO 25001KT //// // ////// 09/07 Q1026
FAUT 231800Z /////KT CAVOK ///// Q1020
FAUP 232300Z 36007KT CAVOK 11/08 Q1020 NOSIG
TAF FAUP 232200Z 2400/2424 VRB03KT CAVOK TX23/2413Z TN08/2404Z
       
FAVV 232100Z AUTO 32003KT //// // ////// 08/06 Q1026
FAWK 232300Z AUTO 22003KT //// // ////// 07/06 Q1023
FAWB 232300Z AUTO 11003KT //// // ////// 10/07 Q1020